sensor_id;sensor_type;location;lat;lon;timestamp;pressure;altitude;pressure_sealevel;temperature;humidity
59531;BME280;45349;48.692;8.186;2023-03-19T00:01:17;98365.34;;;11.07;65.77
59531;BME280;45349;48.692;8.186;2023-03-19T00:03:44;98362.88;;;10.98;67.93
59531;BME280;45349;48.692;8.186;2023-03-19T00:06:10;98368.09;;;10.98;65.86
59531;BME280;45349;48.692;8.186;2023-03-19T00:08:37;98371.38;;;11.00;65.91
59531;BME280;45349;48.692;8.186;2023-03-19T00:11:09;98371.41;;;11.08;63.06
59531;BME280;45349;48.692;8.186;2023-03-19T00:13:36;98381.03;;;11.16;60.81
59531;BME280;45349;48.692;8.186;2023-03-19T00:16:03;98377.47;;;11.50;56.77
59531;BME280;45349;48.692;8.186;2023-03-19T00:18:31;98395.94;;;11.48;60.14
59531;BME280;45349;48.692;8.186;2023-03-19T00:20:58;98398.53;;;11.48;61.02
59531;BME280;45349;48.692;8.186;2023-03-19T00:23:25;98404.91;;;11.46;60.77
59531;BME280;45349;48.692;8.186;2023-03-19T00:25:52;98407.00;;;11.34;61.27
59531;BME280;45349;48.692;8.186;2023-03-19T00:28:21;98410.78;;;11.31;61.28
59531;BME280;45349;48.692;8.186;2023-03-19T00:30:47;98414.03;;;11.25;62.27
59531;BME280;45349;48.692;8.186;2023-03-19T00:33:14;98415.47;;;11.19;62.17
59531;BME280;45349;48.692;8.186;2023-03-19T00:35:41;98421.16;;;11.06;63.95
59531;BME280;45349;48.692;8.186;2023-03-19T00:38:07;98418.50;;;10.90;64.57
59531;BME280;45349;48.692;8.186;2023-03-19T00:40:34;98425.19;;;10.84;65.19
59531;BME280;45349;48.692;8.186;2023-03-19T00:43:01;98420.59;;;10.78;65.32
59531;BME280;45349;48.692;8.186;2023-03-19T00:45:29;98419.06;;;10.67;66.77
59531;BME280;45349;48.692;8.186;2023-03-19T00:47:56;98424.28;;;10.59;68.11
59531;BME280;45349;48.692;8.186;2023-03-19T00:50:24;98428.31;;;10.53;67.57
59531;BME280;45349;48.692;8.186;2023-03-19T00:52:51;98433.06;;;10.58;65.99
59531;BME280;45349;48.692;8.186;2023-03-19T00:55:18;98432.19;;;10.49;65.42
59531;BME280;45349;48.692;8.186;2023-03-19T00:57:45;98426.94;;;10.41;66.22
59531;BME280;45349;48.692;8.186;2023-03-19T01:00:12;98418.69;;;10.54;64.62
59531;BME280;45349;48.692;8.186;2023-03-19T01:02:40;98426.66;;;10.52;61.07
59531;BME280;45349;48.692;8.186;2023-03-19T01:05:07;98435.84;;;10.99;57.68
59531;BME280;45349;48.692;8.186;2023-03-19T01:07:34;98444.03;;;11.13;56.59
59531;BME280;45349;48.692;8.186;2023-03-19T01:10:01;98433.00;;;11.35;55.09
59531;BME280;45349;48.692;8.186;2023-03-19T01:12:28;98438.09;;;11.62;52.13
59531;BME280;45349;48.692;8.186;2023-03-19T01:14:54;98449.69;;;11.76;52.17
59531;BME280;45349;48.692;8.186;2023-03-19T01:17:21;98451.00;;;11.80;52.92
59531;BME280;45349;48.692;8.186;2023-03-19T01:19:49;98458.69;;;11.81;52.71
59531;BME280;45349;48.692;8.186;2023-03-19T01:22:16;98456.72;;;11.75;52.26
59531;BME280;45349;48.692;8.186;2023-03-19T01:24:48;98459.81;;;11.79;53.05
59531;BME280;45349;48.692;8.186;2023-03-19T01:27:15;98450.84;;;11.73;52.46
59531;BME280;45349;48.692;8.186;2023-03-19T01:29:42;98449.53;;;11.69;53.60
59531;BME280;45349;48.692;8.186;2023-03-19T01:32:15;98439.88;;;11.70;54.64
59531;BME280;45349;48.692;8.186;2023-03-19T01:35:03;98436.28;;;11.71;54.03
59531;BME280;45349;48.692;8.186;2023-03-19T01:37:31;98434.00;;;11.76;53.53
59531;BME280;45349;48.692;8.186;2023-03-19T01:39:58;98432.22;;;11.76;55.08
59531;BME280;45349;48.692;8.186;2023-03-19T01:42:25;98433.03;;;11.85;54.98
59531;BME280;45349;48.692;8.186;2023-03-19T01:45:30;98427.47;;;11.88;56.37
59531;BME280;45349;48.692;8.186;2023-03-19T01:48:21;98432.22;;;11.85;59.20
59531;BME280;45349;48.692;8.186;2023-03-19T01:51:01;98426.34;;;11.74;60.31
59531;BME280;45349;48.692;8.186;2023-03-19T01:53:49;98425.69;;;11.64;61.65
59531;BME280;45349;48.692;8.186;2023-03-19T01:56:44;98429.44;;;11.53;63.87
59531;BME280;45349;48.692;8.186;2023-03-19T01:59:19;98423.03;;;11.39;64.77
59531;BME280;45349;48.692;8.186;2023-03-19T02:02:05;98420.25;;;11.32;64.71
59531;BME280;45349;48.692;8.186;2023-03-19T02:04:37;98418.28;;;11.34;62.57
59531;BME280;45349;48.692;8.186;2023-03-19T02:07:07;98417.81;;;11.39;62.96
59531;BME280;45349;48.692;8.186;2023-03-19T02:09:35;98414.88;;;11.42;61.16
59531;BME280;45349;48.692;8.186;2023-03-19T02:12:03;98414.53;;;11.45;61.37
59531;BME280;45349;48.692;8.186;2023-03-19T02:14:30;98410.94;;;11.46;61.94
59531;BME280;45349;48.692;8.186;2023-03-19T02:16:57;98404.59;;;11.49;62.19
59531;BME280;45349;48.692;8.186;2023-03-19T02:19:28;98406.56;;;11.55;61.35
59531;BME280;45349;48.692;8.186;2023-03-19T02:21:58;98408.84;;;11.50;62.99
59531;BME280;45349;48.692;8.186;2023-03-19T02:24:31;98415.38;;;11.37;64.94
59531;BME280;45349;48.692;8.186;2023-03-19T02:27:06;98404.25;;;11.27;64.89
59531;BME280;45349;48.692;8.186;2023-03-19T02:29:34;98407.63;;;11.19;65.46
59531;BME280;45349;48.692;8.186;2023-03-19T02:32:01;98407.47;;;11.13;66.02
59531;BME280;45349;48.692;8.186;2023-03-19T02:34:36;98407.63;;;11.03;68.03
59531;BME280;45349;48.692;8.186;2023-03-19T02:37:08;98411.00;;;10.95;68.11
59531;BME280;45349;48.692;8.186;2023-03-19T02:39:40;98406.59;;;10.87;67.83
59531;BME280;45349;48.692;8.186;2023-03-19T02:42:12;98411.16;;;10.85;68.23
59531;BME280;45349;48.692;8.186;2023-03-19T02:44:40;98409.31;;;10.77;69.17
59531;BME280;45349;48.692;8.186;2023-03-19T02:47:07;98410.94;;;10.78;67.88
59531;BME280;45349;48.692;8.186;2023-03-19T02:49:33;98412.28;;;10.83;66.56
59531;BME280;45349;48.692;8.186;2023-03-19T02:52:00;98408.69;;;10.84;65.99
59531;BME280;45349;48.692;8.186;2023-03-19T02:54:27;98412.47;;;10.89;65.75
59531;BME280;45349;48.692;8.186;2023-03-19T02:56:53;98416.53;;;10.92;63.80
59531;BME280;45349;48.692;8.186;2023-03-19T02:59:21;98414.94;;;10.99;63.60
59531;BME280;45349;48.692;8.186;2023-03-19T03:01:48;98417.88;;;10.96;64.44
59531;BME280;45349;48.692;8.186;2023-03-19T03:04:15;98422.09;;;10.89;65.96
59531;BME280;45349;48.692;8.186;2023-03-19T03:06:43;98416.34;;;10.77;66.88
59531;BME280;45349;48.692;8.186;2023-03-19T03:09:13;98417.63;;;10.73;66.66
59531;BME280;45349;48.692;8.186;2023-03-19T03:11:41;98417.59;;;10.65;67.41
59531;BME280;45349;48.692;8.186;2023-03-19T03:14:08;98419.53;;;10.62;67.56
59531;BME280;45349;48.692;8.186;2023-03-19T03:16:36;98421.84;;;10.66;67.60
59531;BME280;45349;48.692;8.186;2023-03-19T03:19:03;98424.28;;;10.67;65.72
59531;BME280;45349;48.692;8.186;2023-03-19T03:21:30;98411.41;;;10.66;66.74
59531;BME280;45349;48.692;8.186;2023-03-19T03:23:56;98426.88;;;10.59;67.55
59531;BME280;45349;48.692;8.186;2023-03-19T03:26:23;98419.50;;;10.54;68.09
59531;BME280;45349;48.692;8.186;2023-03-19T03:28:50;98435.03;;;10.56;67.88
59531;BME280;45349;48.692;8.186;2023-03-19T03:31:17;98432.38;;;10.47;67.63
59531;BME280;45349;48.692;8.186;2023-03-19T03:33:45;98435.59;;;10.41;68.08
59531;BME280;45349;48.692;8.186;2023-03-19T03:36:12;98428.44;;;10.43;66.09
59531;BME280;45349;48.692;8.186;2023-03-19T03:38:38;98432.38;;;10.47;66.39
59531;BME280;45349;48.692;8.186;2023-03-19T03:41:05;98437.47;;;10.57;63.75
59531;BME280;45349;48.692;8.186;2023-03-19T03:43:32;98430.16;;;10.69;62.41
59531;BME280;45349;48.692;8.186;2023-03-19T03:45:59;98437.38;;;10.75;62.55
59531;BME280;45349;48.692;8.186;2023-03-19T03:48:26;98429.59;;;10.92;61.33
59531;BME280;45349;48.692;8.186;2023-03-19T03:50:54;98432.09;;;11.02;61.40
59531;BME280;45349;48.692;8.186;2023-03-19T03:53:25;98439.09;;;11.01;63.33
59531;BME280;45349;48.692;8.186;2023-03-19T03:55:51;98428.00;;;10.99;62.46
59531;BME280;45349;48.692;8.186;2023-03-19T03:58:21;98445.16;;;11.02;60.29
59531;BME280;45349;48.692;8.186;2023-03-19T04:00:48;98443.88;;;11.06;60.12
59531;BME280;45349;48.692;8.186;2023-03-19T04:03:15;98447.94;;;11.08;59.42
59531;BME280;45349;48.692;8.186;2023-03-19T04:05:43;98448.13;;;11.15;59.84
59531;BME280;45349;48.692;8.186;2023-03-19T04:08:12;98455.34;;;11.30;57.60
59531;BME280;45349;48.692;8.186;2023-03-19T04:10:39;98459.09;;;11.27;58.66
59531;BME280;45349;48.692;8.186;2023-03-19T04:13:06;98456.31;;;11.29;59.33
59531;BME280;45349;48.692;8.186;2023-03-19T04:15:33;98454.06;;;11.34;57.77
59531;BME280;45349;48.692;8.186;2023-03-19T04:18:00;98449.97;;;11.31;57.91
59531;BME280;45349;48.692;8.186;2023-03-19T04:20:27;98450.00;;;11.40;57.19
59531;BME280;45349;48.692;8.186;2023-03-19T04:22:54;98462.41;;;11.37;57.89
59531;BME280;45349;48.692;8.186;2023-03-19T04:25:22;98459.13;;;11.35;59.01
59531;BME280;45349;48.692;8.186;2023-03-19T04:27:51;98459.59;;;11.31;58.81
59531;BME280;45349;48.692;8.186;2023-03-19T04:33:07;98471.97;;;11.20;60.68
59531;BME280;45349;48.692;8.186;2023-03-19T04:35:35;98463.78;;;11.15;60.76
59531;BME280;45349;48.692;8.186;2023-03-19T04:38:02;98471.16;;;11.12;60.60
59531;BME280;45349;48.692;8.186;2023-03-19T04:40:31;98466.53;;;11.05;61.04
59531;BME280;45349;48.692;8.186;2023-03-19T04:42:58;98466.06;;;11.02;60.32
59531;BME280;45349;48.692;8.186;2023-03-19T04:45:33;98473.91;;;11.02;60.93
59531;BME280;45349;48.692;8.186;2023-03-19T04:48:00;98472.94;;;11.11;60.18
59531;BME280;45349;48.692;8.186;2023-03-19T04:50:28;98471.97;;;11.20;57.94
59531;BME280;45349;48.692;8.186;2023-03-19T04:52:54;98481.81;;;11.35;58.31
59531;BME280;45349;48.692;8.186;2023-03-19T04:55:22;98478.22;;;11.36;57.06
59531;BME280;45349;48.692;8.186;2023-03-19T04:58:04;98484.63;;;11.42;55.96
59531;BME280;45349;48.692;8.186;2023-03-19T05:00:33;98477.47;;;11.52;55.40
59531;BME280;45349;48.692;8.186;2023-03-19T05:03:00;98475.34;;;11.56;55.16
59531;BME280;45349;48.692;8.186;2023-03-19T05:05:29;98473.72;;;11.63;53.88
59531;BME280;45349;48.692;8.186;2023-03-19T05:07:56;98478.44;;;11.67;53.59
59531;BME280;45349;48.692;8.186;2023-03-19T05:10:24;98475.03;;;11.75;53.86
59531;BME280;45349;48.692;8.186;2023-03-19T05:12:52;98468.16;;;11.74;52.63
59531;BME280;45349;48.692;8.186;2023-03-19T05:15:20;98475.69;;;11.77;53.48
59531;BME280;45349;48.692;8.186;2023-03-19T05:17:59;98474.53;;;11.72;53.00
59531;BME280;45349;48.692;8.186;2023-03-19T05:20:37;98474.69;;;11.62;54.59
59531;BME280;45349;48.692;8.186;2023-03-19T05:23:14;98477.16;;;11.63;53.49
59531;BME280;45349;48.692;8.186;2023-03-19T05:25:47;98470.28;;;11.71;52.99
59531;BME280;45349;48.692;8.186;2023-03-19T05:28:21;98478.13;;;11.79;52.26
59531;BME280;45349;48.692;8.186;2023-03-19T05:30:48;98474.72;;;11.78;52.20
59531;BME280;45349;48.692;8.186;2023-03-19T05:33:20;98479.94;;;11.78;52.66
59531;BME280;45349;48.692;8.186;2023-03-19T05:35:49;98486.63;;;11.81;52.70
59531;BME280;45349;48.692;8.186;2023-03-19T05:38:22;98481.72;;;11.78;52.94
59531;BME280;45349;48.692;8.186;2023-03-19T05:41:03;98492.38;;;11.76;53.74
59531;BME280;45349;48.692;8.186;2023-03-19T05:43:39;98481.72;;;11.78;53.49
59531;BME280;45349;48.692;8.186;2023-03-19T05:46:12;98488.25;;;11.74;54.48
59531;BME280;45349;48.692;8.186;2023-03-19T05:48:39;98483.19;;;11.64;54.40
59531;BME280;45349;48.692;8.186;2023-03-19T05:51:06;98484.66;;;11.58;53.83
59531;BME280;45349;48.692;8.186;2023-03-19T05:53:39;98488.41;;;11.64;53.29
59531;BME280;45349;48.692;8.186;2023-03-19T05:56:26;98484.34;;;11.61;54.32
59531;BME280;45349;48.692;8.186;2023-03-19T05:59:05;98481.41;;;11.64;53.74
59531;BME280;45349;48.692;8.186;2023-03-19T06:01:37;98494.63;;;11.63;54.07
59531;BME280;45349;48.692;8.186;2023-03-19T06:04:04;98494.47;;;11.64;53.55
59531;BME280;45349;48.692;8.186;2023-03-19T06:06:31;98497.41;;;11.70;53.21
59531;BME280;45349;48.692;8.186;2023-03-19T06:08:57;98496.91;;;11.66;55.44
59531;BME280;45349;48.692;8.186;2023-03-19T06:11:32;98499.84;;;11.63;55.10
59531;BME280;45349;48.692;8.186;2023-03-19T06:14:17;98505.75;;;11.65;53.92
59531;BME280;45349;48.692;8.186;2023-03-19T06:17:02;98501.50;;;11.72;54.25
59531;BME280;45349;48.692;8.186;2023-03-19T06:19:29;98505.25;;;11.78;53.92
59531;BME280;45349;48.692;8.186;2023-03-19T06:21:56;98507.22;;;11.76;54.96
59531;BME280;45349;48.692;8.186;2023-03-19T06:24:23;98502.00;;;11.76;54.99
59531;BME280;45349;48.692;8.186;2023-03-19T06:26:50;98503.16;;;11.73;55.57
59531;BME280;45349;48.692;8.186;2023-03-19T06:29:17;98505.91;;;11.72;55.81
59531;BME280;45349;48.692;8.186;2023-03-19T06:31:47;98509.69;;;11.69;55.43
59531;BME280;45349;48.692;8.186;2023-03-19T06:34:22;98513.75;;;11.63;55.65
59531;BME280;45349;48.692;8.186;2023-03-19T06:36:49;98512.94;;;11.63;56.03
59531;BME280;45349;48.692;8.186;2023-03-19T06:39:18;98513.44;;;11.58;56.81
59531;BME280;45349;48.692;8.186;2023-03-19T06:41:44;98515.22;;;11.58;56.15
59531;BME280;45349;48.692;8.186;2023-03-19T06:44:23;98520.94;;;11.61;56.27
59531;BME280;45349;48.692;8.186;2023-03-19T06:46:50;98519.00;;;11.63;54.96
59531;BME280;45349;48.692;8.186;2023-03-19T06:49:16;98529.28;;;11.73;54.49
59531;BME280;45349;48.692;8.186;2023-03-19T06:51:44;98527.81;;;11.79;54.67
59531;BME280;45349;48.692;8.186;2023-03-19T06:54:11;98524.75;;;11.84;54.88
59531;BME280;45349;48.692;8.186;2023-03-19T06:56:38;98527.69;;;11.89;53.58
59531;BME280;45349;48.692;8.186;2023-03-19T06:59:04;98526.38;;;11.93;54.71
59531;BME280;45349;48.692;8.186;2023-03-19T07:01:31;98522.28;;;11.99;53.59
59531;BME280;45349;48.692;8.186;2023-03-19T07:03:58;98523.81;;;12.01;54.18
59531;BME280;45349;48.692;8.186;2023-03-19T07:06:24;98529.84;;;12.10;52.65
59531;BME280;45349;48.692;8.186;2023-03-19T07:08:52;98530.69;;;12.19;53.48
59531;BME280;45349;48.692;8.186;2023-03-19T07:11:19;98526.41;;;12.26;53.39
59531;BME280;45349;48.692;8.186;2023-03-19T07:13:45;98530.19;;;12.40;52.47
59531;BME280;45349;48.692;8.186;2023-03-19T07:16:12;98532.94;;;12.47;52.79
59531;BME280;45349;48.692;8.186;2023-03-19T07:18:38;98533.75;;;12.55;53.31
59531;BME280;45349;48.692;8.186;2023-03-19T07:21:05;98534.75;;;12.63;53.65
59531;BME280;45349;48.692;8.186;2023-03-19T07:23:32;98536.34;;;12.72;53.54
59531;BME280;45349;48.692;8.186;2023-03-19T07:25:59;98541.88;;;12.85;53.02
59531;BME280;45349;48.692;8.186;2023-03-19T07:28:26;98531.88;;;12.97;54.14
59531;BME280;45349;48.692;8.186;2023-03-19T07:30:53;98539.50;;;13.16;52.90
59531;BME280;45349;48.692;8.186;2023-03-19T07:33:20;98551.28;;;13.20;53.75
59531;BME280;45349;48.692;8.186;2023-03-19T07:35:47;98550.25;;;13.29;52.00
59531;BME280;45349;48.692;8.186;2023-03-19T07:38:14;98558.44;;;13.42;52.25
59531;BME280;45349;48.692;8.186;2023-03-19T07:40:41;98543.94;;;13.55;52.69
59531;BME280;45349;48.692;8.186;2023-03-19T07:43:09;98550.09;;;13.70;51.90
59531;BME280;45349;48.692;8.186;2023-03-19T07:45:35;98550.16;;;13.62;51.34
59531;BME280;45349;48.692;8.186;2023-03-19T07:48:02;98554.69;;;13.68;50.84
59531;BME280;45349;48.692;8.186;2023-03-19T07:50:30;98549.25;;;13.70;50.95
59531;BME280;45349;48.692;8.186;2023-03-19T07:52:57;98556.03;;;13.64;50.39
59531;BME280;45349;48.692;8.186;2023-03-19T07:55:23;98553.28;;;13.81;50.75
59531;BME280;45349;48.692;8.186;2023-03-19T07:57:51;98553.59;;;13.86;50.67
59531;BME280;45349;48.692;8.186;2023-03-19T08:00:20;98552.31;;;13.82;51.23
59531;BME280;45349;48.692;8.186;2023-03-19T08:02:46;98552.44;;;13.88;51.03
59531;BME280;45349;48.692;8.186;2023-03-19T08:05:13;98556.66;;;13.98;50.42
59531;BME280;45349;48.692;8.186;2023-03-19T08:07:40;98553.63;;;14.09;50.23
59531;BME280;45349;48.692;8.186;2023-03-19T08:10:08;98553.44;;;14.11;50.32
59531;BME280;45349;48.692;8.186;2023-03-19T08:12:35;98558.19;;;13.84;51.07
59531;BME280;45349;48.692;8.186;2023-03-19T08:15:06;98548.91;;;13.73;51.89
59531;BME280;45349;48.692;8.186;2023-03-19T08:17:35;98560.69;;;13.77;51.02
59531;BME280;45349;48.692;8.186;2023-03-19T08:20:05;98547.84;;;13.91;51.56
59531;BME280;45349;48.692;8.186;2023-03-19T08:22:33;98554.19;;;13.96;51.99
59531;BME280;45349;48.692;8.186;2023-03-19T08:24:59;98559.13;;;13.91;52.01
59531;BME280;45349;48.692;8.186;2023-03-19T08:27:26;98562.53;;;14.00;51.29
59531;BME280;45349;48.692;8.186;2023-03-19T08:29:54;98563.03;;;13.95;51.80
59531;BME280;45349;48.692;8.186;2023-03-19T08:32:21;98558.63;;;13.96;52.40
59531;BME280;45349;48.692;8.186;2023-03-19T08:34:51;98563.06;;;14.19;51.68
59531;BME280;45349;48.692;8.186;2023-03-19T08:37:18;98570.09;;;14.18;51.30
59531;BME280;45349;48.692;8.186;2023-03-19T08:39:44;98554.81;;;14.45;50.14
59531;BME280;45349;48.692;8.186;2023-03-19T08:42:11;98560.28;;;14.58;50.44
59531;BME280;45349;48.692;8.186;2023-03-19T08:44:38;98560.69;;;14.85;50.04
59531;BME280;45349;48.692;8.186;2023-03-19T08:47:05;98558.72;;;15.02;48.99
59531;BME280;45349;48.692;8.186;2023-03-19T08:49:31;98562.16;;;15.18;48.71
59531;BME280;45349;48.692;8.186;2023-03-19T08:52:02;98568.28;;;15.40;47.33
59531;BME280;45349;48.692;8.186;2023-03-19T08:54:29;98566.72;;;15.46;47.65
59531;BME280;45349;48.692;8.186;2023-03-19T08:56:56;98564.66;;;15.41;47.83
59531;BME280;45349;48.692;8.186;2023-03-19T08:59:22;98583.97;;;15.48;47.08
59531;BME280;45349;48.692;8.186;2023-03-19T09:01:50;98571.19;;;15.45;48.36
59531;BME280;45349;48.692;8.186;2023-03-19T09:04:17;98565.50;;;15.12;47.95
59531;BME280;45349;48.692;8.186;2023-03-19T09:06:44;98561.59;;;14.93;48.80
59531;BME280;45349;48.692;8.186;2023-03-19T09:09:11;98564.47;;;14.68;49.26
59531;BME280;45349;48.692;8.186;2023-03-19T09:11:38;98572.56;;;14.58;49.77
59531;BME280;45349;48.692;8.186;2023-03-19T09:14:05;98585.78;;;14.50;50.18
59531;BME280;45349;48.692;8.186;2023-03-19T09:16:32;98578.16;;;14.40;51.30
59531;BME280;45349;48.692;8.186;2023-03-19T09:18:58;98593.84;;;14.48;51.81
59531;BME280;45349;48.692;8.186;2023-03-19T09:21:25;98577.31;;;14.63;49.87
59531;BME280;45349;48.692;8.186;2023-03-19T09:23:51;98582.22;;;14.66;51.20
59531;BME280;45349;48.692;8.186;2023-03-19T09:26:19;98578.31;;;14.61;50.42
59531;BME280;45349;48.692;8.186;2023-03-19T09:28:46;98579.53;;;14.74;50.25
59531;BME280;45349;48.692;8.186;2023-03-19T09:31:12;98566.56;;;14.72;50.97
59531;BME280;45349;48.692;8.186;2023-03-19T09:33:39;98568.75;;;14.84;50.79
59531;BME280;45349;48.692;8.186;2023-03-19T09:36:06;98571.66;;;15.04;50.01
59531;BME280;45349;48.692;8.186;2023-03-19T09:38:33;98573.28;;;15.05;50.54
59531;BME280;45349;48.692;8.186;2023-03-19T09:41:09;98562.88;;;15.12;49.94
59531;BME280;45349;48.692;8.186;2023-03-19T09:43:51;98565.06;;;15.23;49.13
59531;BME280;45349;48.692;8.186;2023-03-19T09:46:24;98578.53;;;15.35;49.70
59531;BME280;45349;48.692;8.186;2023-03-19T09:48:54;98582.03;;;15.57;49.92
59531;BME280;45349;48.692;8.186;2023-03-19T09:51:27;98579.94;;;15.68;47.61
59531;BME280;45349;48.692;8.186;2023-03-19T09:53:57;98592.22;;;15.45;49.74
59531;BME280;45349;48.692;8.186;2023-03-19T09:56:25;98587.44;;;15.34;49.06
59531;BME280;45349;48.692;8.186;2023-03-19T09:58:53;98596.22;;;15.41;50.52
59531;BME280;45349;48.692;8.186;2023-03-19T10:01:26;98594.78;;;15.90;48.54
59531;BME280;45349;48.692;8.186;2023-03-19T10:04:31;98571.09;;;15.90;46.72
59531;BME280;45349;48.692;8.186;2023-03-19T10:07:07;98581.50;;;15.62;49.11
59531;BME280;45349;48.692;8.186;2023-03-19T10:09:47;98576.81;;;15.79;49.41
59531;BME280;45349;48.692;8.186;2023-03-19T10:12:27;98588.72;;;15.90;48.85
59531;BME280;45349;48.692;8.186;2023-03-19T10:15:16;98585.41;;;16.25;47.54
59531;BME280;45349;48.692;8.186;2023-03-19T10:17:52;98587.44;;;16.22;47.05
59531;BME280;45349;48.692;8.186;2023-03-19T10:20:28;98589.97;;;16.16;47.27
59531;BME280;45349;48.692;8.186;2023-03-19T10:23:00;98594.00;;;16.12;48.65
59531;BME280;45349;48.692;8.186;2023-03-19T10:25:30;98599.59;;;16.23;50.04
59531;BME280;45349;48.692;8.186;2023-03-19T10:28:00;98590.97;;;15.93;50.22
59531;BME280;45349;48.692;8.186;2023-03-19T10:30:34;98589.03;;;16.02;51.48
59531;BME280;45349;48.692;8.186;2023-03-19T10:33:10;98586.69;;;16.57;50.95
59531;BME280;45349;48.692;8.186;2023-03-19T10:35:43;98591.22;;;16.63;49.13
59531;BME280;45349;48.692;8.186;2023-03-19T10:38:19;98601.00;;;16.48;49.05
59531;BME280;45349;48.692;8.186;2023-03-19T10:40:55;98591.69;;;16.23;50.90
59531;BME280;45349;48.692;8.186;2023-03-19T10:43:26;98599.25;;;16.33;51.02
59531;BME280;45349;48.692;8.186;2023-03-19T10:45:56;98593.56;;;16.30;50.42
59531;BME280;45349;48.692;8.186;2023-03-19T10:48:24;98601.16;;;16.18;51.28
59531;BME280;45349;48.692;8.186;2023-03-19T10:50:52;98593.75;;;16.28;50.81
59531;BME280;45349;48.692;8.186;2023-03-19T10:53:29;98595.63;;;16.34;51.06
59531;BME280;45349;48.692;8.186;2023-03-19T10:56:00;98593.25;;;16.40;51.85
59531;BME280;45349;48.692;8.186;2023-03-19T10:58:29;98598.03;;;16.58;51.65
59531;BME280;45349;48.692;8.186;2023-03-19T11:01:03;98600.09;;;16.84;51.85
59531;BME280;45349;48.692;8.186;2023-03-19T11:03:32;98599.28;;;16.62;52.02
59531;BME280;45349;48.692;8.186;2023-03-19T11:06:14;98601.09;;;16.33;52.27
59531;BME280;45349;48.692;8.186;2023-03-19T11:08:42;98604.88;;;16.74;51.49
59531;BME280;45349;48.692;8.186;2023-03-19T11:11:22;98605.06;;;16.72;51.33
59531;BME280;45349;48.692;8.186;2023-03-19T11:13:50;98603.81;;;16.68;51.37
59531;BME280;45349;48.692;8.186;2023-03-19T11:16:19;98592.06;;;16.42;52.66
59531;BME280;45349;48.692;8.186;2023-03-19T11:18:47;98608.34;;;16.52;51.53
59531;BME280;45349;48.692;8.186;2023-03-19T11:21:22;98610.78;;;16.11;52.50
59531;BME280;45349;48.692;8.186;2023-03-19T11:23:51;98603.72;;;15.59;55.11
59531;BME280;45349;48.692;8.186;2023-03-19T11:26:19;98621.28;;;16.04;53.42
59531;BME280;45349;48.692;8.186;2023-03-19T11:28:52;98606.34;;;15.59;54.20
59531;BME280;45349;48.692;8.186;2023-03-19T11:31:25;98613.34;;;15.52;55.10
59531;BME280;45349;48.692;8.186;2023-03-19T11:34:05;98602.13;;;15.95;54.30
59531;BME280;45349;48.692;8.186;2023-03-19T11:36:39;98610.97;;;15.87;55.45
59531;BME280;45349;48.692;8.186;2023-03-19T11:39:16;98608.25;;;16.17;53.16
59531;BME280;45349;48.692;8.186;2023-03-19T11:42:02;98605.97;;;15.77;54.78
59531;BME280;45349;48.692;8.186;2023-03-19T11:44:38;98606.28;;;16.04;53.52
59531;BME280;45349;48.692;8.186;2023-03-19T11:47:17;98604.09;;;16.08;54.77
59531;BME280;45349;48.692;8.186;2023-03-19T11:50:02;98623.81;;;16.34;54.51
59531;BME280;45349;48.692;8.186;2023-03-19T11:52:37;98597.06;;;16.15;53.65
59531;BME280;45349;48.692;8.186;2023-03-19T11:55:18;98603.59;;;16.19;53.59
59531;BME280;45349;48.692;8.186;2023-03-19T11:58:12;98592.84;;;15.99;53.95
59531;BME280;45349;48.692;8.186;2023-03-19T12:00:46;98607.25;;;16.18;53.92
59531;BME280;45349;48.692;8.186;2023-03-19T12:06:33;98589.84;;;16.02;53.29
59531;BME280;45349;48.692;8.186;2023-03-19T12:09:05;98602.28;;;15.57;56.29
59531;BME280;45349;48.692;8.186;2023-03-19T12:11:42;98606.28;;;15.23;57.58
59531;BME280;45349;48.692;8.186;2023-03-19T12:14:24;98595.28;;;15.49;59.80
59531;BME280;45349;48.692;8.186;2023-03-19T12:17:05;98595.16;;;15.35;61.68
59531;BME280;45349;48.692;8.186;2023-03-19T12:19:46;98594.41;;;15.42;60.72
59531;BME280;45349;48.692;8.186;2023-03-19T12:22:26;98592.88;;;15.32;61.17
59531;BME280;45349;48.692;8.186;2023-03-19T12:25:05;98590.78;;;15.28;62.23
59531;BME280;45349;48.692;8.186;2023-03-19T12:27:38;98584.97;;;15.47;64.45
59531;BME280;45349;48.692;8.186;2023-03-19T12:30:15;98592.22;;;15.45;67.05
59531;BME280;45349;48.692;8.186;2023-03-19T12:32:56;98590.88;;;15.49;66.83
59531;BME280;45349;48.692;8.186;2023-03-19T12:35:30;98595.34;;;15.86;65.79
59531;BME280;45349;48.692;8.186;2023-03-19T12:38:03;98591.72;;;15.72;65.78
59531;BME280;45349;48.692;8.186;2023-03-19T12:40:34;98589.50;;;15.54;66.60
59531;BME280;45349;48.692;8.186;2023-03-19T12:43:05;98596.25;;;15.78;65.50
59531;BME280;45349;48.692;8.186;2023-03-19T12:45:38;98594.34;;;15.72;65.35
59531;BME280;45349;48.692;8.186;2023-03-19T12:48:10;98596.31;;;16.00;61.37
59531;BME280;45349;48.692;8.186;2023-03-19T12:50:41;98586.63;;;15.18;63.13
59531;BME280;45349;48.692;8.186;2023-03-19T12:53:20;98590.66;;;15.66;65.52
59531;BME280;45349;48.692;8.186;2023-03-19T12:55:52;98589.97;;;15.94;63.65
59531;BME280;45349;48.692;8.186;2023-03-19T12:58:24;98592.91;;;15.69;63.91
59531;BME280;45349;48.692;8.186;2023-03-19T13:00:58;98590.03;;;15.64;62.79
59531;BME280;45349;48.692;8.186;2023-03-19T13:03:36;98590.81;;;15.79;63.86
59531;BME280;45349;48.692;8.186;2023-03-19T13:06:07;98585.66;;;15.71;64.04
59531;BME280;45349;48.692;8.186;2023-03-19T13:08:42;98583.84;;;15.87;63.25
59531;BME280;45349;48.692;8.186;2023-03-19T13:11:12;98575.44;;;15.98;61.61
59531;BME280;45349;48.692;8.186;2023-03-19T13:13:45;98581.53;;;15.99;60.89
59531;BME280;45349;48.692;8.186;2023-03-19T13:16:28;98575.56;;;16.12;62.81
59531;BME280;45349;48.692;8.186;2023-03-19T13:19:03;98573.22;;;16.45;59.71
59531;BME280;45349;48.692;8.186;2023-03-19T13:21:36;98582.69;;;16.40;59.71
59531;BME280;45349;48.692;8.186;2023-03-19T13:24:13;98577.53;;;16.25;60.22